46°F
Crown Heights Area, Poughkeepsie, NY, USA
UpdatedNov-17-2017 14:02 
 

Nearby METAR Reports

 

KPOU - Poughkeepsie, New York, USA
Distance from station: ENE 2mi, 4km
Updated: Fri, 17-Nov-2017 1:53pm EST
Clear
Clear
 Wind from NW
Wind: NW 7 mph , 11 km/h
Temperature: 46°F , 8°C
Wind Chill: 42°F , 6°C
Dew Point: 19°F , -7°C
Humidity: 34%
Barometer: 30.02 inHg , 1016.6 hPa
Clouds: Clear
Visibility: 10 miles , 16 km
2017/11/17 18:53 KPOU 171853Z 31006KT 10SM CLR 08/M07 A3002 RMK AO2 SLP162 T00831067
KSWF - Newburgh/Stewart, New York, USA
Distance from station: SW 12mi, 19km
Updated: Fri, 17-Nov-2017 1:45pm EST
Clear
Clear
 Wind from NW
Wind: NW 17 mph , 28 km/h, Gust: 29 mph , 46 km/h
Temperature: 45°F , 7°C
Wind Chill: 38°F , 3°C
Dew Point: 19°F , -7°C
Humidity: 37%
Barometer: 30.04 inHg , 1017.3 hPa
Clouds: Clear
Visibility: 20 miles , 32 km
2017/11/17 18:45 KSWF 171845Z 31015G25KT 20SM SKC 07/M07 A3004
 
KMGJ - Montgomery, New York, USA
Distance from station: WSW 19mi, 31km
Updated: Fri, 17-Nov-2017 1:54pm EST
Clear
Clear
 Wind from WNW
Wind: WNW 13 mph , 20 km/h
Temperature: 46°F , 8°C
Wind Chill: 40°F , 4°C
Dew Point: 19°F , -7°C
Humidity: 34%
Barometer: 30.03 inHg , 1016.9 hPa
Clouds: Clear
Visibility: 10 miles , 16 km
2017/11/17 18:54 KMGJ 171854Z AUTO 29011KT 10SM CLR 08/M07 A3003 RMK AO2 SLP171 T00781067
KDXR - Danbury, Connecticut, USA
Distance from station: SE 29mi, 46km
Updated: Fri, 17-Nov-2017 1:53pm EST
Clear
Clear
 Wind from WNW
Wind: WNW 10 mph , 17 km/h
Temperature: 48°F , 9°C
Wind Chill: 44°F , 7°C
Dew Point: 16°F , -9°C
Humidity: 27%
Barometer: 30.01 inHg , 1016.3 hPa
Clouds: Clear
Visibility: 10 miles , 16 km
2017/11/17 18:53 KDXR 171853Z 30009KT 10SM CLR 09/M09 A3001 RMK AO2 SLP162 T00891089
 
KHPN - White Plains, New York, USA
Distance from station: SSE 40mi, 64km
Updated: Fri, 17-Nov-2017 1:56pm EST
Clear
Clear
 Wind from W
Wind: W 17 mph , 28 km/h
Temperature: 45°F , 7°C
Wind Chill: 38°F , 3°C
Dew Point: 21°F , -6°C
Humidity: 39%
Barometer: 30.01 inHg , 1016.3 hPa
Clouds: Clear
Visibility: 10 miles , 16 km
2017/11/17 18:56 KHPN 171856Z 28015KT 10SM CLR 07/M06 A3001 RMK AO2 SLP167 T00721056
KOXC - Oxford/Waterbury, Connecticut, USA
Distance from station: ESE 42mi, 68km
Updated: Fri, 17-Nov-2017 1:51pm EST
Clear
Clear
 Wind from NW
Wind: NW 14 mph , 22 km/h, Gust: 23 mph , 37 km/h
Temperature: 43°F , 6°C
Wind Chill: 36°F , 2°C
Dew Point: 18°F , -8°C
Humidity: 36%
Barometer: 29.98 inHg , 1015.2 hPa
Clouds: Clear
Visibility: 10 miles , 16 km
2017/11/17 18:51 KOXC 171851Z 31012G20KT 10SM CLR 06/M08 A2998 RMK AO2 SLP170 T00611083 $
 
KMSV - Monticello, New York, USA
Distance from station: W 45mi, 72km
Updated: Fri, 17-Nov-2017 1:56pm EST
Clear
Clear
 Wind from WNW
Wind: WNW 13 mph , 20 km/h, Gust: 20 mph , 31 km/h
Temperature: 37°F , 3°C
Wind Chill: 29°F , -2°C
Dew Point: 18°F , -8°C
Humidity: 45%
Barometer: 30.06 inHg , 1017.9 hPa
Clouds: Clear
Visibility: 10 miles , 16 km
2017/11/17 18:56 KMSV 171856Z AUTO 29011G17KT 10SM CLR 03/M08 A3006 RMK AO2 SLP190 T00331083
KFWN - Sussex, New Jersey, USA
Distance from station: SW 47mi, 75km
Updated: Fri, 17-Nov-2017 1:53pm EST
Light rain, Clear
Light rain, Clear
 Wind from WNW
Wind: WNW 9 mph , 15 km/h
Temperature: 45°F , 7°C
Wind Chill: 40°F , 4°C
Dew Point: 18°F , -8°C
Humidity: 34%
Barometer: 30.08 inHg , 1018.6 hPa
Summary: Light rain
Clouds: Clear
Visibility: 10 miles , 16 km
2017/11/17 18:53 KFWN 171853Z AUTO 29008KT 10SM -RA CLR 07/M08 A3008 RMK AO2 SLP187 P0000 T00721078